Terminal Aerodrome Forecast
Issued by NWS

Home | Current Version | Previous Version | Text Only | Print | Product List | Glossary On
Versions: 1 2 3 4 5 6 7 8 9 10 11 12 13 14 15 16 17 18 19 20
000
FTUS45 KFGZ 282320
TAFSEZ
TAF
KSEZ 282320Z 2900/2924 VRB05KT P6SM SCT110
     FM290300 05010G15KT P6SM FEW090
     FM291700 08010KT P6SM FEW110=

USA.gov is the U.S. government's official web portal to all federal, state and local government web resources and services.